sensor_id;sensor_type;location;lat;lon;timestamp;P1;durP1;ratioP1;P2;durP2;ratioP2
37715;SDS011;23562;50.540;12.504;2022-10-16T05:19:31;53.33;;;24.73;;
37715;SDS011;23562;50.540;12.504;2022-10-16T05:21:56;16.23;;;7.50;;
37715;SDS011;23562;50.540;12.504;2022-10-16T05:24:22;13.65;;;7.88;;
37715;SDS011;23562;50.540;12.504;2022-10-16T05:26:47;21.23;;;13.63;;
37715;SDS011;23562;50.540;12.504;2022-10-16T05:29:13;10.13;;;6.22;;
37715;SDS011;23562;50.540;12.504;2022-10-16T05:31:38;8.10;;;5.40;;
37715;SDS011;23562;50.540;12.504;2022-10-16T05:34:04;5.72;;;4.82;;
37715;SDS011;23562;50.540;12.504;2022-10-16T05:36:29;4.78;;;3.83;;
37715;SDS011;23562;50.540;12.504;2022-10-16T05:38:54;2.70;;;2.33;;
37715;SDS011;23562;50.540;12.504;2022-10-16T05:41:19;2.45;;;2.22;;
37715;SDS011;23562;50.540;12.504;2022-10-16T05:43:46;11.25;;;5.72;;
37715;SDS011;23562;50.540;12.504;2022-10-16T05:46:13;6.40;;;5.00;;
37715;SDS011;23562;50.540;12.504;2022-10-16T05:48:39;3.00;;;1.98;;
37715;SDS011;23562;50.540;12.504;2022-10-16T05:51:10;3.00;;;2.25;;
37715;SDS011;23562;50.540;12.504;2022-10-16T05:53:37;3.42;;;3.00;;
37715;SDS011;23562;50.540;12.504;2022-10-16T05:56:04;3.55;;;2.95;;
37715;SDS011;23562;50.540;12.504;2022-10-16T05:58:31;5.35;;;3.47;;
37715;SDS011;23562;50.540;12.504;2022-10-16T06:01:00;2.67;;;2.47;;
37715;SDS011;23562;50.540;12.504;2022-10-16T06:03:27;3.42;;;2.40;;
37715;SDS011;23562;50.540;12.504;2022-10-16T06:05:53;4.32;;;3.03;;
37715;SDS011;23562;50.540;12.504;2022-10-16T06:08:19;3.60;;;2.78;;
37715;SDS011;23562;50.540;12.504;2022-10-16T06:10:46;5.60;;;2.25;;
37715;SDS011;23562;50.540;12.504;2022-10-16T06:13:12;2.00;;;1.80;;
37715;SDS011;23562;50.540;12.504;2022-10-16T06:15:38;2.20;;;2.00;;
37715;SDS011;23562;50.540;12.504;2022-10-16T06:18:04;2.85;;;1.80;;
37715;SDS011;23562;50.540;12.504;2022-10-16T06:20:30;2.38;;;2.08;;
37715;SDS011;23562;50.540;12.504;2022-10-16T06:22:56;3.67;;;2.10;;
37715;SDS011;23562;50.540;12.504;2022-10-16T06:25:21;2.28;;;2.00;;
37715;SDS011;23562;50.540;12.504;2022-10-16T06:27:47;3.50;;;1.70;;
37715;SDS011;23562;50.540;12.504;2022-10-16T06:30:12;2.50;;;1.80;;
37715;SDS011;23562;50.540;12.504;2022-10-16T06:32:37;3.05;;;1.90;;
37715;SDS011;23562;50.540;12.504;2022-10-16T06:35:02;2.05;;;1.50;;
37715;SDS011;23562;50.540;12.504;2022-10-16T06:37:28;2.47;;;1.52;;
37715;SDS011;23562;50.540;12.504;2022-10-16T06:39:53;1.75;;;1.65;;
37715;SDS011;23562;50.540;12.504;2022-10-16T06:42:18;2.00;;;1.73;;
37715;SDS011;23562;50.540;12.504;2022-10-16T06:44:44;2.00;;;1.70;;
37715;SDS011;23562;50.540;12.504;2022-10-16T06:47:10;2.35;;;1.80;;
37715;SDS011;23562;50.540;12.504;2022-10-16T06:49:35;1.60;;;1.50;;
37715;SDS011;23562;50.540;12.504;2022-10-16T06:52:00;2.53;;;1.85;;
37715;SDS011;23562;50.540;12.504;2022-10-16T06:54:26;3.15;;;1.60;;
37715;SDS011;23562;50.540;12.504;2022-10-16T06:56:52;2.80;;;2.03;;
37715;SDS011;23562;50.540;12.504;2022-10-16T06:59:19;10.13;;;4.40;;
37715;SDS011;23562;50.540;12.504;2022-10-16T07:01:44;7.50;;;5.20;;
37715;SDS011;23562;50.540;12.504;2022-10-16T07:04:10;13.20;;;7.68;;
37715;SDS011;23562;50.540;12.504;2022-10-16T07:06:35;6.30;;;3.67;;
37715;SDS011;23562;50.540;12.504;2022-10-16T07:09:02;6.30;;;3.00;;
37715;SDS011;23562;50.540;12.504;2022-10-16T07:11:29;7.30;;;3.33;;
37715;SDS011;23562;50.540;12.504;2022-10-16T07:13:55;2.42;;;1.83;;
37715;SDS011;23562;50.540;12.504;2022-10-16T07:16:21;3.35;;;2.30;;
37715;SDS011;23562;50.540;12.504;2022-10-16T07:18:58;4.93;;;1.75;;
37715;SDS011;23562;50.540;12.504;2022-10-16T07:21:25;2.63;;;2.00;;
37715;SDS011;23562;50.540;12.504;2022-10-16T07:23:53;5.90;;;2.47;;
37715;SDS011;23562;50.540;12.504;2022-10-16T07:26:20;3.88;;;1.67;;
37715;SDS011;23562;50.540;12.504;2022-10-16T07:28:46;2.60;;;1.60;;
37715;SDS011;23562;50.540;12.504;2022-10-16T07:31:12;2.33;;;1.50;;
37715;SDS011;23562;50.540;12.504;2022-10-16T07:33:40;3.22;;;1.48;;
37715;SDS011;23562;50.540;12.504;2022-10-16T07:36:08;1.65;;;1.50;;
37715;SDS011;23562;50.540;12.504;2022-10-16T07:38:33;1.63;;;1.35;;
37715;SDS011;23562;50.540;12.504;2022-10-16T07:40:59;4.78;;;1.50;;
37715;SDS011;23562;50.540;12.504;2022-10-16T07:43:26;1.88;;;1.50;;
37715;SDS011;23562;50.540;12.504;2022-10-16T07:45:52;1.60;;;1.40;;
37715;SDS011;23562;50.540;12.504;2022-10-16T07:48:18;1.88;;;1.55;;
37715;SDS011;23562;50.540;12.504;2022-10-16T07:50:44;2.55;;;1.70;;
37715;SDS011;23562;50.540;12.504;2022-10-16T07:53:09;2.17;;;1.50;;
37715;SDS011;23562;50.540;12.504;2022-10-16T07:55:35;4.20;;;1.65;;
37715;SDS011;23562;50.540;12.504;2022-10-16T07:58:00;1.90;;;1.70;;
37715;SDS011;23562;50.540;12.504;2022-10-16T08:00:26;3.60;;;1.80;;
37715;SDS011;23562;50.540;12.504;2022-10-16T08:02:51;2.22;;;1.60;;
37715;SDS011;23562;50.540;12.504;2022-10-16T08:05:16;3.15;;;1.70;;
37715;SDS011;23562;50.540;12.504;2022-10-16T08:07:52;3.78;;;1.52;;
37715;SDS011;23562;50.540;12.504;2022-10-16T08:10:17;8.63;;;1.50;;
37715;SDS011;23562;50.540;12.504;2022-10-16T08:12:44;1.90;;;1.40;;
37715;SDS011;23562;50.540;12.504;2022-10-16T08:15:09;3.40;;;1.20;;
37715;SDS011;23562;50.540;12.504;2022-10-16T08:17:35;2.22;;;1.40;;
37715;SDS011;23562;50.540;12.504;2022-10-16T08:20:00;2.50;;;1.70;;
37715;SDS011;23562;50.540;12.504;2022-10-16T08:22:26;3.58;;;1.52;;
37715;SDS011;23562;50.540;12.504;2022-10-16T08:24:52;3.45;;;1.70;;
37715;SDS011;23562;50.540;12.504;2022-10-16T08:27:17;2.25;;;1.63;;
37715;SDS011;23562;50.540;12.504;2022-10-16T08:29:42;3.60;;;1.60;;
37715;SDS011;23562;50.540;12.504;2022-10-16T08:32:07;2.10;;;1.60;;
37715;SDS011;23562;50.540;12.504;2022-10-16T08:34:33;5.28;;;1.55;;
37715;SDS011;23562;50.540;12.504;2022-10-16T08:36:58;2.13;;;1.65;;
37715;SDS011;23562;50.540;12.504;2022-10-16T08:39:23;4.00;;;1.88;;
37715;SDS011;23562;50.540;12.504;2022-10-16T08:47:49;4.60;;;1.90;;
37715;SDS011;23562;50.540;12.504;2022-10-16T08:50:26;2.10;;;1.60;;
37715;SDS011;23562;50.540;12.504;2022-10-16T08:52:54;1.70;;;1.60;;
37715;SDS011;23562;50.540;12.504;2022-10-16T08:55:26;2.88;;;1.63;;
37715;SDS011;23562;50.540;12.504;2022-10-16T08:57:55;2.70;;;1.50;;
37715;SDS011;23562;50.540;12.504;2022-10-16T09:00:21;1.75;;;1.48;;
37715;SDS011;23562;50.540;12.504;2022-10-16T09:02:53;1.40;;;1.27;;
37715;SDS011;23562;50.540;12.504;2022-10-16T09:05:47;2.50;;;1.30;;
37715;SDS011;23562;50.540;12.504;2022-10-16T09:10:55;5.25;;;1.33;;
37715;SDS011;23562;50.540;12.504;2022-10-16T09:13:29;4.25;;;1.58;;
37715;SDS011;23562;50.540;12.504;2022-10-16T09:16:11;3.38;;;2.70;;
37715;SDS011;23562;50.540;12.504;2022-10-16T09:23:57;4.13;;;3.67;;
37715;SDS011;23562;50.540;12.504;2022-10-16T09:26:29;3.15;;;2.85;;
37715;SDS011;23562;50.540;12.504;2022-10-16T09:28:55;2.95;;;2.60;;
37715;SDS011;23562;50.540;12.504;2022-10-16T09:31:21;3.42;;;2.28;;
37715;SDS011;23562;50.540;12.504;2022-10-16T09:33:55;5.03;;;2.80;;
37715;SDS011;23562;50.540;12.504;2022-10-16T09:36:25;8.77;;;5.25;;
37715;SDS011;23562;50.540;12.504;2022-10-16T09:39:01;9.27;;;5.65;;
37715;SDS011;23562;50.540;12.504;2022-10-16T09:41:33;14.98;;;7.43;;
37715;SDS011;23562;50.540;12.504;2022-10-16T09:44:01;8.30;;;4.83;;
37715;SDS011;23562;50.540;12.504;2022-10-16T09:46:29;29.70;;;14.18;;
37715;SDS011;23562;50.540;12.504;2022-10-16T09:49:21;13.02;;;6.68;;
37715;SDS011;23562;50.540;12.504;2022-10-16T09:51:49;11.95;;;5.00;;
37715;SDS011;23562;50.540;12.504;2022-10-16T09:54:16;19.08;;;8.77;;
37715;SDS011;23562;50.540;12.504;2022-10-16T09:56:43;9.35;;;4.43;;
37715;SDS011;23562;50.540;12.504;2022-10-16T09:59:20;33.13;;;11.48;;
37715;SDS011;23562;50.540;12.504;2022-10-16T10:01:54;17.92;;;6.50;;
37715;SDS011;23562;50.540;12.504;2022-10-16T10:04:21;25.98;;;8.95;;
37715;SDS011;23562;50.540;12.504;2022-10-16T10:06:49;13.45;;;5.97;;
37715;SDS011;23562;50.540;12.504;2022-10-16T10:12:00;8.50;;;3.75;;
37715;SDS011;23562;50.540;12.504;2022-10-16T10:14:37;31.42;;;11.85;;
37715;SDS011;23562;50.540;12.504;2022-10-16T10:19:30;11.50;;;4.10;;
37715;SDS011;23562;50.540;12.504;2022-10-16T10:38:50;8.38;;;6.28;;
37715;SDS011;23562;50.540;12.504;2022-10-16T10:55:45;7.45;;;5.18;;
37715;SDS011;23562;50.540;12.504;2022-10-16T11:01:21;3.15;;;2.55;;
37715;SDS011;23562;50.540;12.504;2022-10-16T11:06:43;5.10;;;2.60;;
37715;SDS011;23562;50.540;12.504;2022-10-16T11:09:14;5.40;;;3.35;;
37715;SDS011;23562;50.540;12.504;2022-10-16T11:11:47;3.90;;;3.25;;
37715;SDS011;23562;50.540;12.504;2022-10-16T11:14:20;4.70;;;3.10;;
37715;SDS011;23562;50.540;12.504;2022-10-16T11:17:10;4.35;;;3.47;;
37715;SDS011;23562;50.540;12.504;2022-10-16T11:25:04;6.20;;;1.50;;
37715;SDS011;23562;50.540;12.504;2022-10-16T11:27:38;5.13;;;2.10;;
37715;SDS011;23562;50.540;12.504;2022-10-16T11:30:16;4.00;;;2.20;;
37715;SDS011;23562;50.540;12.504;2022-10-16T11:32:57;4.20;;;2.03;;
37715;SDS011;23562;50.540;12.504;2022-10-16T11:35:32;3.88;;;2.75;;
37715;SDS011;23562;50.540;12.504;2022-10-16T11:49:47;3.35;;;2.15;;
37715;SDS011;23562;50.540;12.504;2022-10-16T11:52:20;5.95;;;2.88;;
37715;SDS011;23562;50.540;12.504;2022-10-16T11:54:56;2.70;;;2.10;;
37715;SDS011;23562;50.540;12.504;2022-10-16T11:57:27;3.75;;;1.30;;
37715;SDS011;23562;50.540;12.504;2022-10-16T12:06:20;3.38;;;2.70;;
37715;SDS011;23562;50.540;12.504;2022-10-16T12:08:55;3.13;;;1.70;;
37715;SDS011;23562;50.540;12.504;2022-10-16T12:14:06;2.85;;;2.20;;
37715;SDS011;23562;50.540;12.504;2022-10-16T12:16:38;2.90;;;1.10;;
37715;SDS011;23562;50.540;12.504;2022-10-16T12:19:16;2.28;;;2.00;;
37715;SDS011;23562;50.540;12.504;2022-10-16T12:21:42;3.10;;;1.20;;
37715;SDS011;23562;50.540;12.504;2022-10-16T12:27:01;2.50;;;1.15;;
37715;SDS011;23562;50.540;12.504;2022-10-16T12:32:22;1.40;;;1.17;;
37715;SDS011;23562;50.540;12.504;2022-10-16T12:34:53;1.25;;;1.10;;
37715;SDS011;23562;50.540;12.504;2022-10-16T12:37:26;1.83;;;1.10;;
37715;SDS011;23562;50.540;12.504;2022-10-16T12:39:55;1.52;;;1.13;;
37715;SDS011;23562;50.540;12.504;2022-10-16T12:42:23;5.45;;;2.67;;
37715;SDS011;23562;50.540;12.504;2022-10-16T12:44:48;3.92;;;2.28;;
37715;SDS011;23562;50.540;12.504;2022-10-16T12:47:57;4.93;;;3.10;;
37715;SDS011;23562;50.540;12.504;2022-10-16T12:50:33;5.65;;;2.00;;
37715;SDS011;23562;50.540;12.504;2022-10-16T12:53:00;8.50;;;4.20;;
37715;SDS011;23562;50.540;12.504;2022-10-16T12:55:29;6.00;;;5.40;;
37715;SDS011;23562;50.540;12.504;2022-10-16T13:01:17;3.47;;;2.90;;
37715;SDS011;23562;50.540;12.504;2022-10-16T13:04:04;3.10;;;1.80;;
37715;SDS011;23562;50.540;12.504;2022-10-16T13:06:49;3.35;;;1.60;;
37715;SDS011;23562;50.540;12.504;2022-10-16T13:09:30;3.33;;;2.70;;
37715;SDS011;23562;50.540;12.504;2022-10-16T13:15:29;38.15;;;26.08;;
37715;SDS011;23562;50.540;12.504;2022-10-16T13:18:28;31.42;;;15.35;;
37715;SDS011;23562;50.540;12.504;2022-10-16T13:21:06;30.20;;;15.35;;
37715;SDS011;23562;50.540;12.504;2022-10-16T13:29:06;6.45;;;5.47;;
37715;SDS011;23562;50.540;12.504;2022-10-16T13:31:31;5.25;;;4.75;;
37715;SDS011;23562;50.540;12.504;2022-10-16T13:33:57;3.30;;;3.00;;
37715;SDS011;23562;50.540;12.504;2022-10-16T13:36:26;3.75;;;1.65;;
37715;SDS011;23562;50.540;12.504;2022-10-16T13:41:36;2.22;;;1.67;;
37715;SDS011;23562;50.540;12.504;2022-10-16T13:44:02;3.50;;;1.90;;
37715;SDS011;23562;50.540;12.504;2022-10-16T13:46:28;3.35;;;1.67;;
37715;SDS011;23562;50.540;12.504;2022-10-16T13:48:58;2.03;;;1.40;;
37715;SDS011;23562;50.540;12.504;2022-10-16T13:51:24;2.30;;;1.55;;
37715;SDS011;23562;50.540;12.504;2022-10-16T13:53:51;3.35;;;1.50;;
37715;SDS011;23562;50.540;12.504;2022-10-16T13:56:18;1.45;;;1.30;;
37715;SDS011;23562;50.540;12.504;2022-10-16T13:58:57;2.17;;;1.63;;
37715;SDS011;23562;50.540;12.504;2022-10-16T14:01:25;4.13;;;1.70;;
37715;SDS011;23562;50.540;12.504;2022-10-16T14:03:59;3.63;;;1.80;;
37715;SDS011;23562;50.540;12.504;2022-10-16T14:06:27;2.90;;;1.58;;
37715;SDS011;23562;50.540;12.504;2022-10-16T14:09:05;4.63;;;2.58;;
37715;SDS011;23562;50.540;12.504;2022-10-16T14:11:33;5.78;;;2.80;;
37715;SDS011;23562;50.540;12.504;2022-10-16T14:14:03;3.03;;;2.17;;
37715;SDS011;23562;50.540;12.504;2022-10-16T14:16:30;5.13;;;2.05;;
37715;SDS011;23562;50.540;12.504;2022-10-16T14:19:13;6.20;;;2.60;;
37715;SDS011;23562;50.540;12.504;2022-10-16T14:21:43;2.95;;;2.30;;
37715;SDS011;23562;50.540;12.504;2022-10-16T14:24:13;3.65;;;1.90;;
37715;SDS011;23562;50.540;12.504;2022-10-16T14:26:47;2.20;;;2.00;;
37715;SDS011;23562;50.540;12.504;2022-10-16T14:29:14;3.10;;;1.60;;
37715;SDS011;23562;50.540;12.504;2022-10-16T14:31:42;3.25;;;2.08;;
37715;SDS011;23562;50.540;12.504;2022-10-16T14:34:26;3.40;;;2.10;;
37715;SDS011;23562;50.540;12.504;2022-10-16T14:36:55;3.05;;;1.80;;
37715;SDS011;23562;50.540;12.504;2022-10-16T14:39:22;2.25;;;1.80;;
37715;SDS011;23562;50.540;12.504;2022-10-16T14:41:50;3.50;;;1.70;;
37715;SDS011;23562;50.540;12.504;2022-10-16T14:44:19;4.45;;;1.80;;
37715;SDS011;23562;50.540;12.504;2022-10-16T14:46:52;3.13;;;1.90;;
37715;SDS011;23562;50.540;12.504;2022-10-16T14:49:18;7.93;;;3.38;;
37715;SDS011;23562;50.540;12.504;2022-10-16T14:51:45;4.97;;;2.70;;
37715;SDS011;23562;50.540;12.504;2022-10-16T14:54:12;7.57;;;3.40;;
37715;SDS011;23562;50.540;12.504;2022-10-16T14:56:46;2.97;;;2.35;;
37715;SDS011;23562;50.540;12.504;2022-10-16T14:59:30;5.50;;;2.80;;
37715;SDS011;23562;50.540;12.504;2022-10-16T15:01:56;4.93;;;3.20;;
37715;SDS011;23562;50.540;12.504;2022-10-16T15:04:24;4.47;;;2.80;;
37715;SDS011;23562;50.540;12.504;2022-10-16T15:06:49;10.77;;;6.40;;
37715;SDS011;23562;50.540;12.504;2022-10-16T15:09:16;12.45;;;7.05;;
37715;SDS011;23562;50.540;12.504;2022-10-16T15:11:43;9.93;;;4.20;;
37715;SDS011;23562;50.540;12.504;2022-10-16T15:14:12;11.93;;;6.30;;
37715;SDS011;23562;50.540;12.504;2022-10-16T15:16:38;8.73;;;4.60;;
37715;SDS011;23562;50.540;12.504;2022-10-16T15:19:03;6.47;;;3.60;;
37715;SDS011;23562;50.540;12.504;2022-10-16T15:21:29;11.55;;;4.63;;
37715;SDS011;23562;50.540;12.504;2022-10-16T15:23:57;6.88;;;3.03;;
37715;SDS011;23562;50.540;12.504;2022-10-16T15:26:29;7.90;;;4.40;;
37715;SDS011;23562;50.540;12.504;2022-10-16T15:31:25;10.60;;;5.50;;
37715;SDS011;23562;50.540;12.504;2022-10-16T15:33:51;9.35;;;4.88;;
37715;SDS011;23562;50.540;12.504;2022-10-16T15:36:26;4.90;;;3.50;;
37715;SDS011;23562;50.540;12.504;2022-10-16T15:39:01;7.93;;;4.90;;
37715;SDS011;23562;50.540;12.504;2022-10-16T15:41:27;8.30;;;5.22;;
37715;SDS011;23562;50.540;12.504;2022-10-16T15:43:53;8.13;;;4.82;;
37715;SDS011;23562;50.540;12.504;2022-10-16T15:46:19;14.25;;;8.65;;
37715;SDS011;23562;50.540;12.504;2022-10-16T15:48:47;6.10;;;3.65;;
37715;SDS011;23562;50.540;12.504;2022-10-16T15:51:16;2.93;;;2.73;;
37715;SDS011;23562;50.540;12.504;2022-10-16T15:53:43;2.72;;;2.15;;
37715;SDS011;23562;50.540;12.504;2022-10-16T15:56:09;3.17;;;2.03;;
37715;SDS011;23562;50.540;12.504;2022-10-16T15:58:40;7.22;;;5.07;;
37715;SDS011;23562;50.540;12.504;2022-10-16T16:01:05;4.55;;;2.95;;
37715;SDS011;23562;50.540;12.504;2022-10-16T16:03:31;7.50;;;3.30;;
37715;SDS011;23562;50.540;12.504;2022-10-16T16:05:58;6.93;;;6.20;;
37715;SDS011;23562;50.540;12.504;2022-10-16T16:08:28;8.10;;;6.88;;
37715;SDS011;23562;50.540;12.504;2022-10-16T16:11:09;9.80;;;6.75;;
37715;SDS011;23562;50.540;12.504;2022-10-16T16:13:39;11.13;;;8.32;;
37715;SDS011;23562;50.540;12.504;2022-10-16T16:16:10;13.68;;;8.70;;
37715;SDS011;23562;50.540;12.504;2022-10-16T16:18:37;5.65;;;4.65;;
37715;SDS011;23562;50.540;12.504;2022-10-16T16:21:03;5.93;;;5.15;;
37715;SDS011;23562;50.540;12.504;2022-10-16T16:23:30;8.00;;;6.30;;
37715;SDS011;23562;50.540;12.504;2022-10-16T16:26:29;9.45;;;5.22;;
37715;SDS011;23562;50.540;12.504;2022-10-16T16:28:58;6.55;;;5.88;;
37715;SDS011;23562;50.540;12.504;2022-10-16T16:31:25;6.70;;;5.85;;
37715;SDS011;23562;50.540;12.504;2022-10-16T16:33:54;5.75;;;3.50;;
37715;SDS011;23562;50.540;12.504;2022-10-16T16:36:20;5.07;;;3.70;;
37715;SDS011;23562;50.540;12.504;2022-10-16T16:38:45;5.45;;;4.55;;
37715;SDS011;23562;50.540;12.504;2022-10-16T16:41:15;10.15;;;6.75;;
37715;SDS011;23562;50.540;12.504;2022-10-16T16:43:42;8.90;;;6.50;;
37715;SDS011;23562;50.540;12.504;2022-10-16T16:46:08;9.85;;;7.03;;
37715;SDS011;23562;50.540;12.504;2022-10-16T16:48:34;7.18;;;4.35;;
37715;SDS011;23562;50.540;12.504;2022-10-16T16:51:04;11.88;;;7.38;;
37715;SDS011;23562;50.540;12.504;2022-10-16T16:53:29;5.55;;;4.70;;
37715;SDS011;23562;50.540;12.504;2022-10-16T16:55:55;6.22;;;5.10;;
37715;SDS011;23562;50.540;12.504;2022-10-16T16:58:20;7.68;;;4.93;;
37715;SDS011;23562;50.540;12.504;2022-10-16T17:00:46;6.20;;;4.40;;
37715;SDS011;23562;50.540;12.504;2022-10-16T17:03:11;5.18;;;3.88;;
37715;SDS011;23562;50.540;12.504;2022-10-16T17:05:36;3.22;;;2.88;;
37715;SDS011;23562;50.540;12.504;2022-10-16T17:08:02;4.25;;;3.00;;
37715;SDS011;23562;50.540;12.504;2022-10-16T17:10:27;5.43;;;3.40;;
37715;SDS011;23562;50.540;12.504;2022-10-16T17:12:53;5.65;;;4.05;;
37715;SDS011;23562;50.540;12.504;2022-10-16T17:15:18;7.47;;;4.28;;
37715;SDS011;23562;50.540;12.504;2022-10-16T17:17:43;5.40;;;4.90;;
37715;SDS011;23562;50.540;12.504;2022-10-16T17:20:08;4.88;;;4.07;;
37715;SDS011;23562;50.540;12.504;2022-10-16T17:22:35;4.45;;;3.03;;
37715;SDS011;23562;50.540;12.504;2022-10-16T17:25:09;4.53;;;2.92;;
37715;SDS011;23562;50.540;12.504;2022-10-16T17:27:35;9.43;;;3.40;;
37715;SDS011;23562;50.540;12.504;2022-10-16T17:30:00;5.10;;;3.53;;
37715;SDS011;23562;50.540;12.504;2022-10-16T17:32:26;4.13;;;3.00;;
37715;SDS011;23562;50.540;12.504;2022-10-16T17:35:02;5.70;;;2.97;;
37715;SDS011;23562;50.540;12.504;2022-10-16T17:37:29;9.82;;;3.70;;
37715;SDS011;23562;50.540;12.504;2022-10-16T17:39:54;5.75;;;4.50;;
37715;SDS011;23562;50.540;12.504;2022-10-16T17:42:20;6.57;;;4.68;;
37715;SDS011;23562;50.540;12.504;2022-10-16T17:44:45;4.80;;;3.92;;
37715;SDS011;23562;50.540;12.504;2022-10-16T17:47:10;4.38;;;3.97;;
37715;SDS011;23562;50.540;12.504;2022-10-16T17:49:36;6.32;;;3.55;;
37715;SDS011;23562;50.540;12.504;2022-10-16T17:52:01;3.58;;;3.08;;
37715;SDS011;23562;50.540;12.504;2022-10-16T17:54:33;4.70;;;2.45;;
37715;SDS011;23562;50.540;12.504;2022-10-16T17:57:01;8.52;;;4.85;;
37715;SDS011;23562;50.540;12.504;2022-10-16T17:59:26;9.63;;;6.20;;
37715;SDS011;23562;50.540;12.504;2022-10-16T18:01:53;6.28;;;5.18;;
37715;SDS011;23562;50.540;12.504;2022-10-16T18:04:18;4.55;;;3.78;;
37715;SDS011;23562;50.540;12.504;2022-10-16T18:06:44;7.50;;;4.40;;
37715;SDS011;23562;50.540;12.504;2022-10-16T18:09:10;4.70;;;4.30;;
37715;SDS011;23562;50.540;12.504;2022-10-16T18:11:39;9.15;;;6.30;;
37715;SDS011;23562;50.540;12.504;2022-10-16T18:14:04;8.95;;;7.00;;
37715;SDS011;23562;50.540;12.504;2022-10-16T18:16:30;19.02;;;15.48;;
37715;SDS011;23562;50.540;12.504;2022-10-16T18:18:56;23.17;;;15.75;;
37715;SDS011;23562;50.540;12.504;2022-10-16T18:21:28;20.90;;;14.95;;
37715;SDS011;23562;50.540;12.504;2022-10-16T18:23:53;32.17;;;22.77;;
37715;SDS011;23562;50.540;12.504;2022-10-16T18:26:19;36.90;;;25.40;;
37715;SDS011;23562;50.540;12.504;2022-10-16T18:28:46;30.77;;;22.00;;
37715;SDS011;23562;50.540;12.504;2022-10-16T18:31:12;8.02;;;7.00;;
37715;SDS011;23562;50.540;12.504;2022-10-16T18:33:45;7.80;;;5.90;;
37715;SDS011;23562;50.540;12.504;2022-10-16T18:36:18;8.35;;;5.43;;
37715;SDS011;23562;50.540;12.504;2022-10-16T18:38:48;7.93;;;4.05;;
37715;SDS011;23562;50.540;12.504;2022-10-16T18:41:14;7.28;;;3.28;;
37715;SDS011;23562;50.540;12.504;2022-10-16T18:43:40;7.45;;;3.03;;
37715;SDS011;23562;50.540;12.504;2022-10-16T18:46:11;4.57;;;2.78;;
37715;SDS011;23562;50.540;12.504;2022-10-16T18:48:41;5.07;;;3.03;;
37715;SDS011;23562;50.540;12.504;2022-10-16T18:54:10;3.13;;;2.85;;
37715;SDS011;23562;50.540;12.504;2022-10-16T18:56:36;4.20;;;2.92;;
37715;SDS011;23562;50.540;12.504;2022-10-16T18:59:03;4.32;;;2.53;;
37715;SDS011;23562;50.540;12.504;2022-10-16T19:01:32;7.47;;;3.00;;
37715;SDS011;23562;50.540;12.504;2022-10-16T19:04:00;5.03;;;2.90;;
37715;SDS011;23562;50.540;12.504;2022-10-16T19:06:32;5.35;;;3.28;;
37715;SDS011;23562;50.540;12.504;2022-10-16T19:09:03;3.03;;;2.50;;
37715;SDS011;23562;50.540;12.504;2022-10-16T19:11:29;5.05;;;3.60;;
37715;SDS011;23562;50.540;12.504;2022-10-16T19:13:57;6.10;;;3.15;;
37715;SDS011;23562;50.540;12.504;2022-10-16T19:16:27;4.32;;;2.65;;
37715;SDS011;23562;50.540;12.504;2022-10-16T19:18:58;3.65;;;2.10;;
37715;SDS011;23562;50.540;12.504;2022-10-16T19:21:25;3.20;;;2.25;;
37715;SDS011;23562;50.540;12.504;2022-10-16T19:23:52;2.10;;;1.90;;
37715;SDS011;23562;50.540;12.504;2022-10-16T19:26:19;3.50;;;2.42;;
37715;SDS011;23562;50.540;12.504;2022-10-16T19:28:45;4.20;;;2.17;;
37715;SDS011;23562;50.540;12.504;2022-10-16T19:31:12;3.97;;;2.70;;
37715;SDS011;23562;50.540;12.504;2022-10-16T19:33:39;4.15;;;2.45;;
37715;SDS011;23562;50.540;12.504;2022-10-16T19:36:08;5.80;;;2.60;;
37715;SDS011;23562;50.540;12.504;2022-10-16T19:38:41;6.15;;;2.55;;
37715;SDS011;23562;50.540;12.504;2022-10-16T19:41:11;3.60;;;2.58;;
37715;SDS011;23562;50.540;12.504;2022-10-16T19:43:38;8.38;;;2.90;;
37715;SDS011;23562;50.540;12.504;2022-10-16T19:46:05;4.20;;;2.80;;
37715;SDS011;23562;50.540;12.504;2022-10-16T19:48:33;4.03;;;2.55;;
37715;SDS011;23562;50.540;12.504;2022-10-16T19:50:59;4.78;;;3.20;;
37715;SDS011;23562;50.540;12.504;2022-10-16T19:53:24;4.75;;;2.80;;
37715;SDS011;23562;50.540;12.504;2022-10-16T19:55:52;7.68;;;3.08;;
37715;SDS011;23562;50.540;12.504;2022-10-16T19:58:17;6.70;;;3.40;;
37715;SDS011;23562;50.540;12.504;2022-10-16T20:00:42;8.52;;;3.17;;
37715;SDS011;23562;50.540;12.504;2022-10-16T20:03:08;5.57;;;3.40;;
37715;SDS011;23562;50.540;12.504;2022-10-16T20:05:33;9.00;;;2.95;;
37715;SDS011;23562;50.540;12.504;2022-10-16T20:08:01;7.10;;;3.38;;
37715;SDS011;23562;50.540;12.504;2022-10-16T20:10:29;5.63;;;3.70;;
37715;SDS011;23562;50.540;12.504;2022-10-16T20:12:55;9.18;;;3.85;;
37715;SDS011;23562;50.540;12.504;2022-10-16T20:15:20;8.55;;;3.72;;
37715;SDS011;23562;50.540;12.504;2022-10-16T20:17:45;8.60;;;3.30;;
37715;SDS011;23562;50.540;12.504;2022-10-16T20:20:13;6.97;;;3.42;;
37715;SDS011;23562;50.540;12.504;2022-10-16T20:22:39;7.25;;;3.67;;
37715;SDS011;23562;50.540;12.504;2022-10-16T20:25:07;8.02;;;3.70;;
37715;SDS011;23562;50.540;12.504;2022-10-16T20:27:35;5.80;;;3.45;;
37715;SDS011;23562;50.540;12.504;2022-10-16T20:30:03;9.40;;;3.63;;
37715;SDS011;23562;50.540;12.504;2022-10-16T20:32:29;9.18;;;3.80;;
37715;SDS011;23562;50.540;12.504;2022-10-16T20:34:54;6.25;;;3.30;;
37715;SDS011;23562;50.540;12.504;2022-10-16T20:37:19;5.82;;;3.42;;
37715;SDS011;23562;50.540;12.504;2022-10-16T20:39:45;4.28;;;3.28;;
37715;SDS011;23562;50.540;12.504;2022-10-16T20:42:11;4.70;;;3.30;;
37715;SDS011;23562;50.540;12.504;2022-10-16T20:44:37;6.88;;;3.65;;
37715;SDS011;23562;50.540;12.504;2022-10-16T20:47:03;5.38;;;3.88;;
37715;SDS011;23562;50.540;12.504;2022-10-16T20:49:28;7.00;;;3.60;;
37715;SDS011;23562;50.540;12.504;2022-10-16T20:51:54;4.20;;;3.50;;
37715;SDS011;23562;50.540;12.504;2022-10-16T20:54:19;4.20;;;3.30;;
37715;SDS011;23562;50.540;12.504;2022-10-16T20:56:45;10.77;;;3.30;;
37715;SDS011;23562;50.540;12.504;2022-10-16T20:59:10;6.32;;;3.42;;
37715;SDS011;23562;50.540;12.504;2022-10-16T21:01:37;3.97;;;3.20;;
37715;SDS011;23562;50.540;12.504;2022-10-16T21:04:04;5.53;;;3.70;;
37715;SDS011;23562;50.540;12.504;2022-10-16T21:06:31;9.23;;;5.70;;
37715;SDS011;23562;50.540;12.504;2022-10-16T21:08:58;12.77;;;6.82;;
37715;SDS011;23562;50.540;12.504;2022-10-16T21:11:27;8.57;;;5.10;;
37715;SDS011;23562;50.540;12.504;2022-10-16T21:13:54;7.78;;;3.92;;
37715;SDS011;23562;50.540;12.504;2022-10-16T21:16:25;7.97;;;3.00;;
37715;SDS011;23562;50.540;12.504;2022-10-16T21:18:50;4.63;;;2.78;;
37715;SDS011;23562;50.540;12.504;2022-10-16T21:21:21;3.58;;;2.80;;
37715;SDS011;23562;50.540;12.504;2022-10-16T21:23:48;5.07;;;2.80;;
37715;SDS011;23562;50.540;12.504;2022-10-16T21:26:14;7.57;;;3.08;;
37715;SDS011;23562;50.540;12.504;2022-10-16T21:28:40;10.55;;;4.20;;
37715;SDS011;23562;50.540;12.504;2022-10-16T21:31:09;8.35;;;3.58;;
37715;SDS011;23562;50.540;12.504;2022-10-16T21:33:39;3.78;;;2.80;;
37715;SDS011;23562;50.540;12.504;2022-10-16T21:36:17;7.22;;;3.28;;
37715;SDS011;23562;50.540;12.504;2022-10-16T21:38:44;5.30;;;2.88;;
37715;SDS011;23562;50.540;12.504;2022-10-16T21:41:12;6.18;;;3.40;;
37715;SDS011;23562;50.540;12.504;2022-10-16T21:43:52;8.65;;;4.28;;
37715;SDS011;23562;50.540;12.504;2022-10-16T21:46:22;8.32;;;3.60;;
37715;SDS011;23562;50.540;12.504;2022-10-16T21:48:53;5.93;;;3.50;;